KIEN

Pine Ridge Airport

Pine Ridge, South Dakota, USA
METAR KIEN 191152Z AUTO 29008KT 8SM -RA BKN040 BKN055 OVC070 04/02 A2975 RMK AO2 UPE1056RAB39 SLP087 P0001 60001 70001 T00440017 10044 21011 51012
Observed Flight Rules
Dec-19 @ 11:52 UTC (19 minutes ago) Visual Flight Rules
Wind Visibility Clouds Conditions
290° at 8 knots 8 miles
  • Broken at 4,000' AGL
  • Broken at 5,500' AGL
  • Overcast at 7,000' AGL
  • Light Rain
Temperatures Readings Precipitation
Current 4°C / 39°F
Dewpoint 2°C / 36°F
Humidity 87%
Altimeter 29.75" Hg
Pressure 1008.7 hPa
Elevation 998
Current Rain 0.01
METAR KIEN 191152Z AUTO 29008KT 8SM -RA BKN040 BKN055 OVC070 04/02 A2975 RMK AO2 UPE1056RAB39 SLP087 P0001 60001 70001 T00440017 10044 21011 51012
Observed Flight Rules
Dec-19 @ 11:52 UTC
(19 minutes ago)
VFR
Wind Visibility
290° at 8 knots 8 miles
Clouds
  • Broken at 4,000' AGL
  • Broken at 5,500' AGL
  • Overcast at 7,000' AGL
Conditions
  • Light Rain
Temperature Dewpoint
4°C / 39°F 2°C / 36°F
Humidity Altimeter Pressure
87% 29.75" Hg 1008.7 hPa
Current Rain
0.01